createdAt,value
2023-03-29T00:00:16.834Z,-2.13
2023-03-29T00:03:05.305Z,-2.49
2023-03-29T00:05:36.253Z,-2.78
2023-03-29T00:08:04.606Z,-3.05
2023-03-29T00:10:34.242Z,-3.30
2023-03-29T00:13:03.176Z,-3.51
2023-03-29T00:15:31.392Z,-3.67
2023-03-29T00:17:59.393Z,-3.43
2023-03-29T00:20:28.914Z,-1.23
2023-03-29T00:22:56.983Z,0.97
2023-03-29T00:25:25.012Z,2.01
2023-03-29T00:27:53.027Z,0.96
2023-03-29T00:30:21.081Z,-0.36
2023-03-29T00:32:49.015Z,-1.33
2023-03-29T00:35:17.251Z,-2.02
2023-03-29T00:37:47.249Z,-2.57
2023-03-29T00:40:15.700Z,-3.02
2023-03-29T00:42:46.737Z,-3.36
2023-03-29T00:45:27.676Z,-3.66
2023-03-29T00:48:04.728Z,-3.54
2023-03-29T00:50:57.424Z,-1.27
2023-03-29T00:53:33.503Z,0.98
2023-03-29T00:56:05.395Z,1.57
2023-03-29T00:59:02.379Z,0.08
2023-03-29T01:01:42.248Z,-1.50
2023-03-29T01:04:26.043Z,-2.38
2023-03-29T01:06:59.356Z,-2.96
2023-03-29T01:09:30.475Z,-3.36
2023-03-29T01:12:03.017Z,-3.70
2023-03-29T01:14:41.891Z,-4.07
2023-03-29T01:17:12.951Z,-4.36
2023-03-29T01:19:47.988Z,-4.22
2023-03-29T01:22:18.833Z,-2.02
2023-03-29T01:25:14.618Z,0.21
2023-03-29T01:27:51.663Z,1.83
2023-03-29T01:30:29.871Z,1.88
2023-03-29T01:33:04.316Z,0.06
2023-03-29T01:36:04.921Z,-1.45
2023-03-29T01:38:51.734Z,-2.64
2023-03-29T01:41:20.270Z,-3.46
2023-03-29T01:43:51.448Z,-4.05
2023-03-29T01:46:26.540Z,-4.54
2023-03-29T01:49:03.638Z,-4.00
2023-03-29T01:52:01.301Z,-1.57
2023-03-29T01:54:36.169Z,0.47
2023-03-29T01:57:07.053Z,1.48
2023-03-29T01:59:38.683Z,1.91
2023-03-29T02:02:11.983Z,2.39
2023-03-29T02:04:48.061Z,2.78
2023-03-29T02:07:19.388Z,3.18
2023-03-29T02:09:50.100Z,3.54
2023-03-29T02:12:18.957Z,3.80
2023-03-29T02:14:46.956Z,4.00
2023-03-29T02:17:24.482Z,4.27
2023-03-29T02:19:59.416Z,4.52
2023-03-29T02:22:37.253Z,4.70
2023-03-29T02:25:08.611Z,4.83
2023-03-29T02:27:38.125Z,4.91
2023-03-29T02:30:09.076Z,5.00
2023-03-29T02:32:51.963Z,5.12
2023-03-29T02:35:35.173Z,4.03
2023-03-29T02:38:07.102Z,1.58
2023-03-29T02:40:37.791Z,-0.17
2023-03-29T02:43:08.415Z,-1.46
2023-03-29T02:45:39.768Z,-2.49
2023-03-29T02:48:12.570Z,-3.41
2023-03-29T02:50:43.668Z,-4.15
2023-03-29T02:53:26.810Z,-4.58
2023-03-29T02:55:55.605Z,-2.72
2023-03-29T02:58:26.682Z,-0.67
2023-03-29T03:00:57.162Z,0.62
2023-03-29T03:03:25.610Z,1.29
2023-03-29T03:05:54.001Z,1.24
2023-03-29T03:08:22.006Z,1.53
2023-03-29T03:10:50.113Z,1.95
2023-03-29T03:13:20.826Z,2.42
2023-03-29T03:15:49.457Z,2.72
2023-03-29T03:18:17.659Z,3.00
2023-03-29T03:20:58.281Z,3.21
2023-03-29T03:23:26.214Z,3.35
2023-03-29T03:25:55.334Z,3.20
2023-03-29T03:28:24.431Z,2.91
2023-03-29T03:30:53.066Z,2.73
2023-03-29T03:33:56.785Z,2.89
2023-03-29T03:36:51.176Z,2.95
2023-03-29T03:39:19.185Z,2.57
2023-03-29T03:41:47.136Z,2.73
2023-03-29T03:44:15.071Z,2.84
2023-03-29T03:46:44.116Z,2.97
2023-03-29T03:49:12.252Z,3.11
2023-03-29T03:51:44.390Z,3.20
2023-03-29T03:54:12.725Z,3.21
2023-03-29T03:57:01.121Z,3.24
2023-03-29T03:59:39.768Z,3.15
2023-03-29T04:02:11.906Z,2.96
2023-03-29T04:04:40.753Z,2.74
2023-03-29T04:07:13.203Z,2.79
2023-03-29T04:10:09.279Z,2.76
2023-03-29T04:12:47.204Z,2.78
2023-03-29T04:15:17.950Z,2.81
2023-03-29T04:17:51.543Z,2.94
2023-03-29T04:20:19.790Z,3.03
2023-03-29T04:22:47.811Z,3.15
2023-03-29T04:26:15.782Z,3.36
2023-03-29T04:29:04.913Z,3.19
2023-03-29T04:31:40.219Z,2.69
2023-03-29T04:34:29.358Z,2.30
2023-03-29T04:36:58.926Z,2.35
2023-03-29T04:39:33.864Z,2.46
2023-03-29T04:42:03.164Z,2.63
2023-03-29T04:44:33.769Z,2.68
2023-03-29T04:47:02.268Z,2.82
2023-03-29T04:49:30.556Z,3.07
2023-03-29T04:52:01.010Z,3.18
2023-03-29T04:54:30.375Z,3.34
2023-03-29T04:57:17.231Z,3.12
2023-03-29T04:59:56.986Z,3.04
2023-03-29T05:02:50.941Z,3.24
2023-03-29T05:05:19.476Z,3.19
2023-03-29T05:07:48.055Z,3.33
2023-03-29T05:10:16.440Z,3.12
2023-03-29T05:12:44.539Z,3.23
2023-03-29T05:15:12.522Z,3.18
2023-03-29T05:17:40.858Z,3.67
2023-03-29T05:20:12.920Z,4.26
2023-03-29T05:22:41.211Z,4.73
2023-03-29T05:25:11.888Z,5.16
2023-03-29T05:27:42.533Z,4.21
2023-03-29T05:30:11.935Z,2.46
2023-03-29T05:32:48.197Z,1.13
2023-03-29T05:35:17.661Z,0.30
2023-03-29T05:37:47.418Z,-0.32
2023-03-29T05:40:15.513Z,-0.82
2023-03-29T05:43:02.929Z,-1.23
2023-03-29T05:45:32.592Z,-1.51
2023-03-29T05:48:00.881Z,-1.72
2023-03-29T05:50:30.249Z,-1.89
2023-03-29T05:52:58.685Z,-2.04
2023-03-29T05:55:27.120Z,-1.76
2023-03-29T05:57:55.908Z,0.43
2023-03-29T06:00:26.853Z,2.61
2023-03-29T06:03:17.631Z,3.40
2023-03-29T06:05:56.328Z,2.16
2023-03-29T06:08:26.302Z,1.10
2023-03-29T06:11:09.147Z,0.40
2023-03-29T06:13:55.953Z,-0.11
2023-03-29T06:16:24.187Z,-0.41
2023-03-29T06:18:53.326Z,-0.61
2023-03-29T06:21:22.350Z,-0.73
2023-03-29T06:23:50.502Z,-0.88
2023-03-29T06:26:19.192Z,-0.78
2023-03-29T06:28:51.417Z,0.94
2023-03-29T06:31:21.173Z,2.33
2023-03-29T06:33:50.928Z,1.87
2023-03-29T06:36:45.970Z,0.99
2023-03-29T06:39:14.563Z,0.44
2023-03-29T06:41:57.982Z,0.03
2023-03-29T06:44:44.149Z,-0.21
2023-03-29T06:47:19.774Z,-0.37
2023-03-29T06:49:47.735Z,-0.49
2023-03-29T06:52:30.283Z,-0.59
2023-03-29T06:55:02.041Z,-0.27
2023-03-29T06:57:30.880Z,1.82
2023-03-29T06:59:59.299Z,3.56
2023-03-29T07:02:44.513Z,2.91
2023-03-29T07:05:14.662Z,2.04
2023-03-29T07:07:55.507Z,1.45
2023-03-29T07:10:54.061Z,1.06
2023-03-29T07:13:46.341Z,0.87
2023-03-29T07:16:18.148Z,0.72
2023-03-29T07:18:48.995Z,0.65
2023-03-29T07:21:28.912Z,0.61
2023-03-29T07:24:01.827Z,0.57
2023-03-29T07:26:30.620Z,0.57
2023-03-29T07:29:00.275Z,0.57
2023-03-29T07:31:33.140Z,0.61
2023-03-29T07:34:20.923Z,0.68
2023-03-29T07:36:48.998Z,0.73
2023-03-29T07:39:17.752Z,0.82
2023-03-29T07:41:58.128Z,0.94
2023-03-29T07:44:27.246Z,1.00
2023-03-29T07:46:56.315Z,1.05
2023-03-29T07:50:15.100Z,1.12
2023-03-29T07:52:44.478Z,1.22
2023-03-29T07:55:14.040Z,1.30
2023-03-29T07:58:05.447Z,1.44
2023-03-29T08:00:34.232Z,1.53
2023-03-29T08:03:17.221Z,1.59
2023-03-29T08:05:45.462Z,1.67
2023-03-29T08:08:16.404Z,1.70
2023-03-29T08:10:52.022Z,1.77
2023-03-29T08:13:42.938Z,1.86
2023-03-29T08:16:23.079Z,1.95
2023-03-29T08:18:56.777Z,2.02
2023-03-29T08:21:26.587Z,2.05
2023-03-29T08:23:54.698Z,2.15
2023-03-29T08:26:27.341Z,2.21
2023-03-29T08:28:55.993Z,2.25
2023-03-29T08:31:24.640Z,2.31
2023-03-29T08:33:53.389Z,2.40
2023-03-29T08:36:40.370Z,2.49
2023-03-29T08:39:19.543Z,2.58
2023-03-29T08:42:04.964Z,2.68
2023-03-29T08:44:58.007Z,2.80
2023-03-29T08:47:45.543Z,2.91
2023-03-29T08:50:15.151Z,2.99
2023-03-29T08:52:51.663Z,3.07
2023-03-29T08:55:38.124Z,3.15
2023-03-29T08:58:29.133Z,3.25
2023-03-29T09:01:00.400Z,3.37
2023-03-29T09:03:44.063Z,3.46
2023-03-29T09:06:19.265Z,3.55
2023-03-29T09:08:49.873Z,3.70
2023-03-29T09:11:24.677Z,3.79
2023-03-29T09:14:13.331Z,3.92
2023-03-29T09:16:52.106Z,4.01
2023-03-29T09:19:31.559Z,4.06
2023-03-29T09:22:09.600Z,4.09
2023-03-29T09:24:56.490Z,4.05
2023-03-29T09:27:50.425Z,4.10
2023-03-29T09:30:34.864Z,4.17
2023-03-29T09:33:12.748Z,4.18
2023-03-29T09:36:09.236Z,4.19
2023-03-29T09:38:41.495Z,4.25
2023-03-29T09:41:28.007Z,4.35
2023-03-29T09:44:00.373Z,4.44
2023-03-29T09:46:42.696Z,4.53
2023-03-29T09:49:17.765Z,4.59
2023-03-29T09:51:49.164Z,4.69
2023-03-29T09:54:17.377Z,4.76
2023-03-29T09:57:23.385Z,4.85
2023-03-29T09:59:52.652Z,4.96
2023-03-29T10:02:21.861Z,5.11
2023-03-29T10:05:03.936Z,5.21
2023-03-29T10:07:44.663Z,5.31
2023-03-29T10:10:34.638Z,5.40
2023-03-29T10:13:11.346Z,5.48
2023-03-29T10:15:39.514Z,5.53
2023-03-29T10:18:11.912Z,5.60
2023-03-29T10:20:40.767Z,5.69
2023-03-29T10:23:17.375Z,5.84
2023-03-29T10:25:45.784Z,5.97
2023-03-29T10:28:17.724Z,6.14
2023-03-29T10:30:52.789Z,6.27
2023-03-29T10:33:24.317Z,6.39
2023-03-29T10:35:52.646Z,6.42
2023-03-29T10:38:24.170Z,6.40
2023-03-29T10:40:53.894Z,6.46
2023-03-29T10:43:29.808Z,6.50
2023-03-29T10:47:14.059Z,6.49
2023-03-29T10:49:44.945Z,6.54
2023-03-29T10:52:17.287Z,6.69
2023-03-29T10:54:46.520Z,7.00
2023-03-29T10:57:56.324Z,7.29
2023-03-29T11:00:59.970Z,7.46
2023-03-29T11:03:41.559Z,7.35
2023-03-29T11:06:16.628Z,7.26
2023-03-29T11:08:57.841Z,7.32
2023-03-29T11:11:45.450Z,7.41
2023-03-29T11:14:31.685Z,7.47
2023-03-29T11:17:22.788Z,7.59
2023-03-29T11:19:56.625Z,7.69
2023-03-29T11:22:50.501Z,7.77
2023-03-29T11:25:38.580Z,7.88
2023-03-29T11:28:20.280Z,8.05
2023-03-29T11:31:06.983Z,8.04
2023-03-29T11:33:55.120Z,7.95
2023-03-29T11:36:39.072Z,7.93
2023-03-29T11:39:16.076Z,7.94
2023-03-29T11:41:49.006Z,7.95
2023-03-29T11:44:22.687Z,8.01
2023-03-29T11:47:00.546Z,8.09
2023-03-29T11:49:34.329Z,8.24
2023-03-29T11:52:20.581Z,8.40
2023-03-29T11:54:53.673Z,8.65
2023-03-29T11:57:29.108Z,8.69
2023-03-29T12:00:07.108Z,8.57
2023-03-29T12:02:46.362Z,8.55
2023-03-29T12:05:23.092Z,8.75
2023-03-29T12:07:57.098Z,8.97
2023-03-29T12:10:31.359Z,9.20
2023-03-29T12:13:06.568Z,9.31
2023-03-29T12:15:42.832Z,9.21
2023-03-29T12:18:41.032Z,9.17
2023-03-29T12:21:14.214Z,9.28
2023-03-29T12:23:44.778Z,9.48
2023-03-29T12:26:50.294Z,9.59
2023-03-29T12:29:46.707Z,9.78
2023-03-29T12:32:31.681Z,9.95
2023-03-29T12:35:22.263Z,10.12
2023-03-29T12:38:21.657Z,10.23
2023-03-29T12:41:23.145Z,10.20
2023-03-29T12:44:24.028Z,10.10
2023-03-29T12:47:00.476Z,10.09
2023-03-29T12:49:33.451Z,10.20
2023-03-29T12:52:05.649Z,10.27
2023-03-29T12:54:33.921Z,10.43
2023-03-29T12:57:20.010Z,10.50
2023-03-29T12:59:49.498Z,10.37
2023-03-29T13:02:18.186Z,10.37
2023-03-29T13:04:58.050Z,10.56
2023-03-29T13:07:30.600Z,10.87
2023-03-29T13:10:28.252Z,11.31
2023-03-29T13:12:56.252Z,11.65
2023-03-29T13:15:27.384Z,11.79
2023-03-29T13:18:32.326Z,11.90
2023-03-29T13:21:31.027Z,11.93
2023-03-29T13:24:16.971Z,12.08
2023-03-29T13:26:51.824Z,12.12
2023-03-29T13:29:43.327Z,11.92
2023-03-29T13:32:36.192Z,11.46
2023-03-29T13:35:11.705Z,11.18
2023-03-29T13:38:01.390Z,10.84
2023-03-29T13:40:43.513Z,10.52
2023-03-29T13:43:18.656Z,10.33
2023-03-29T13:45:58.732Z,10.33
2023-03-29T13:48:35.826Z,10.25
2023-03-29T13:51:20.247Z,10.08
2023-03-29T13:53:54.922Z,9.94
2023-03-29T13:56:27.226Z,9.85
2023-03-29T13:59:05.727Z,9.74
2023-03-29T14:01:46.017Z,9.60
2023-03-29T14:04:30.629Z,9.63
2023-03-29T14:07:01.211Z,9.71
2023-03-29T14:09:32.093Z,9.72
2023-03-29T14:12:01.227Z,9.85
2023-03-29T14:14:32.260Z,10.00
2023-03-29T14:17:00.981Z,10.13
2023-03-29T14:19:34.253Z,10.29
2023-03-29T14:22:07.732Z,10.40
2023-03-29T14:25:29.390Z,10.37
2023-03-29T14:27:57.568Z,10.37
2023-03-29T14:30:28.800Z,10.51
2023-03-29T14:32:56.947Z,10.60
2023-03-29T14:35:33.441Z,10.61
2023-03-29T14:38:02.483Z,10.64
2023-03-29T14:40:30.918Z,10.68
2023-03-29T14:43:06.749Z,10.71
2023-03-29T14:45:35.457Z,10.83
2023-03-29T14:48:04.625Z,11.04
2023-03-29T14:50:32.917Z,11.18
2023-03-29T14:53:01.820Z,11.19
2023-03-29T14:55:31.075Z,11.19
2023-03-29T14:58:00.338Z,11.20
2023-03-29T15:00:30.247Z,11.29
2023-03-29T15:03:03.123Z,11.44
2023-03-29T15:05:44.002Z,11.46
2023-03-29T15:08:27.622Z,11.76
2023-03-29T15:10:55.694Z,11.94
2023-03-29T15:13:25.393Z,11.69
2023-03-29T15:15:59.138Z,11.44
2023-03-29T15:18:39.932Z,11.34
2023-03-29T15:21:10.244Z,11.26
2023-03-29T15:23:42.179Z,11.34
2023-03-29T15:26:23.375Z,11.44
2023-03-29T15:28:57.642Z,11.52
2023-03-29T15:31:32.481Z,11.57
2023-03-29T15:34:06.303Z,11.74
2023-03-29T15:36:42.356Z,12.05
2023-03-29T15:39:15.566Z,12.27
2023-03-29T15:41:45.340Z,12.35
2023-03-29T15:44:17.399Z,12.34
2023-03-29T15:46:45.467Z,12.24
2023-03-29T15:49:14.351Z,12.18
2023-03-29T15:51:42.322Z,12.28
2023-03-29T15:54:10.594Z,12.39
2023-03-29T15:57:22.872Z,12.59
2023-03-29T16:01:07.899Z,12.76
2023-03-29T16:04:24.657Z,12.72
2023-03-29T16:06:55.693Z,12.87
2023-03-29T16:09:23.774Z,12.94
2023-03-29T16:11:56.591Z,13.12
2023-03-29T16:14:43.133Z,13.38
2023-03-29T16:18:04.871Z,13.27
2023-03-29T16:20:32.958Z,12.78
2023-03-29T16:23:01.187Z,12.39
2023-03-29T16:25:29.102Z,11.93
2023-03-29T16:27:57.089Z,11.40
2023-03-29T16:30:25.338Z,10.87
2023-03-29T16:32:53.343Z,10.37
2023-03-29T16:35:31.294Z,9.93
2023-03-29T16:37:59.398Z,9.54
2023-03-29T16:40:28.022Z,9.23
2023-03-29T16:42:56.074Z,8.93
2023-03-29T16:45:24.032Z,8.71
2023-03-29T16:47:51.981Z,8.52
2023-03-29T16:50:21.901Z,8.34
2023-03-29T16:52:51.636Z,8.19
2023-03-29T16:55:22.268Z,8.10
2023-03-29T16:57:51.030Z,8.00
2023-03-29T17:00:20.350Z,7.88
2023-03-29T17:02:51.354Z,7.73
2023-03-29T17:05:19.696Z,7.54
2023-03-29T17:07:47.848Z,7.39
2023-03-29T17:10:16.180Z,7.25
2023-03-29T17:12:45.596Z,7.10
2023-03-29T17:15:13.792Z,6.95
2023-03-29T17:17:42.042Z,6.82
2023-03-29T17:20:12.389Z,6.69
2023-03-29T17:22:41.525Z,6.57
2023-03-29T17:25:10.176Z,6.46
2023-03-29T17:27:38.268Z,6.35
2023-03-29T17:30:07.240Z,6.24
2023-03-29T17:32:35.883Z,6.13
2023-03-29T17:35:04.812Z,6.04
2023-03-29T17:37:32.856Z,5.95
2023-03-29T17:40:01.021Z,5.84
2023-03-29T17:42:28.990Z,5.73
2023-03-29T17:44:57.008Z,5.64
2023-03-29T17:47:25.309Z,5.54
2023-03-29T17:49:53.427Z,5.45
2023-03-29T17:52:21.617Z,5.36
2023-03-29T17:54:49.655Z,5.27
2023-03-29T17:57:17.789Z,5.18
2023-03-29T17:59:46.243Z,5.08
2023-03-29T18:02:19.365Z,4.98
2023-03-29T18:04:47.683Z,4.86
2023-03-29T18:07:16.013Z,4.73
2023-03-29T18:09:44.132Z,4.56
2023-03-29T18:12:12.545Z,4.37
2023-03-29T18:14:40.787Z,4.17
2023-03-29T18:17:09.103Z,3.97
2023-03-29T18:19:37.288Z,3.72
2023-03-29T18:22:05.440Z,3.54
2023-03-29T18:24:33.345Z,3.37
2023-03-29T18:27:01.461Z,3.19
2023-03-29T18:29:29.638Z,3.01
2023-03-29T18:32:02.836Z,2.83
2023-03-29T18:34:31.348Z,2.64
2023-03-29T18:36:59.313Z,2.51
2023-03-29T18:39:27.520Z,2.43
2023-03-29T18:41:55.432Z,2.37
2023-03-29T18:44:27.323Z,2.26
2023-03-29T18:46:56.379Z,2.15
2023-03-29T18:49:25.820Z,2.08
2023-03-29T18:51:57.335Z,1.97
2023-03-29T18:54:35.178Z,1.84
2023-03-29T18:57:06.868Z,1.78
2023-03-29T18:59:36.609Z,1.77
2023-03-29T19:02:04.739Z,1.77
2023-03-29T19:04:32.837Z,1.78
2023-03-29T19:07:01.496Z,1.75
2023-03-29T19:09:30.218Z,1.69
2023-03-29T19:11:58.672Z,1.60
2023-03-29T19:14:26.842Z,1.50
2023-03-29T19:16:54.912Z,1.41
2023-03-29T19:19:23.852Z,1.30
2023-03-29T19:21:53.403Z,1.56
2023-03-29T19:24:22.084Z,3.51
2023-03-29T19:26:52.060Z,5.43
2023-03-29T19:29:20.674Z,6.17
2023-03-29T19:31:48.873Z,5.24
2023-03-29T19:34:19.736Z,4.06
2023-03-29T19:36:47.667Z,3.28
2023-03-29T19:39:15.619Z,2.73
2023-03-29T19:41:43.611Z,2.27
2023-03-29T19:44:11.532Z,1.90
2023-03-29T19:46:40.684Z,1.62
2023-03-29T19:49:09.767Z,1.39
2023-03-29T19:51:37.776Z,1.57
2023-03-29T19:54:07.043Z,3.42
2023-03-29T19:56:34.996Z,5.42
2023-03-29T19:59:02.951Z,6.79
2023-03-29T20:01:32.417Z,7.18
2023-03-29T20:06:29.629Z,4.42
2023-03-29T20:08:58.679Z,3.52
2023-03-29T20:11:26.659Z,2.84
2023-03-29T20:13:54.580Z,2.28
2023-03-29T20:16:25.786Z,1.87
2023-03-29T20:18:54.120Z,1.53
2023-03-29T20:21:22.064Z,1.29
2023-03-29T20:23:52.536Z,1.08
2023-03-29T20:26:20.518Z,1.25
2023-03-29T20:28:48.609Z,2.95
2023-03-29T20:31:16.839Z,4.67
2023-03-29T20:33:44.858Z,5.46
2023-03-29T20:36:13.350Z,4.49
2023-03-29T20:38:41.328Z,3.34
2023-03-29T20:41:09.513Z,2.60
2023-03-29T20:43:37.769Z,2.11
2023-03-29T20:46:14.708Z,1.73
2023-03-29T20:48:46.162Z,1.37
2023-03-29T20:51:14.304Z,1.49
2023-03-29T20:53:42.985Z,3.28
2023-03-29T20:56:10.926Z,5.05
2023-03-29T20:58:42.074Z,5.66
2023-03-29T21:01:14.335Z,4.51
2023-03-29T21:03:42.399Z,3.46
2023-03-29T21:06:14.071Z,2.76
2023-03-29T21:08:45.466Z,2.35
2023-03-29T21:11:14.027Z,2.07
2023-03-29T21:13:43.623Z,1.87
2023-03-29T21:16:13.007Z,1.71
2023-03-29T21:18:41.690Z,1.57
2023-03-29T21:21:11.382Z,1.48
2023-03-29T21:23:41.746Z,2.46
2023-03-29T21:26:09.675Z,3.96
2023-03-29T21:28:41.351Z,3.63
2023-03-29T21:31:09.648Z,2.71
2023-03-29T21:33:37.633Z,2.07
2023-03-29T21:36:05.823Z,1.66
2023-03-29T21:38:46.815Z,1.41
2023-03-29T21:41:14.756Z,1.21
2023-03-29T21:43:49.668Z,1.41
2023-03-29T21:46:17.638Z,3.38
2023-03-29T21:48:45.568Z,5.24
2023-03-29T21:51:13.555Z,6.14
2023-03-29T21:53:44.015Z,5.18
2023-03-29T21:56:12.302Z,3.98
2023-03-29T21:58:47.160Z,3.14
2023-03-29T22:01:19.357Z,2.54
2023-03-29T22:03:49.155Z,2.09
2023-03-29T22:06:17.488Z,1.70
2023-03-29T22:08:46.857Z,1.78
2023-03-29T22:11:17.731Z,3.62
2023-03-29T22:13:48.689Z,5.35
2023-03-29T22:16:19.587Z,6.15
2023-03-29T22:18:54.321Z,5.10
2023-03-29T22:21:24.719Z,4.01
2023-03-29T22:24:01.723Z,3.32
2023-03-29T22:26:32.992Z,2.81
2023-03-29T22:29:01.577Z,2.44
2023-03-29T22:31:30.208Z,2.18
2023-03-29T22:33:58.707Z,1.96
2023-03-29T22:36:29.750Z,1.78
2023-03-29T22:38:58.280Z,1.98
2023-03-29T22:41:27.737Z,3.84
2023-03-29T22:43:58.825Z,5.72
2023-03-29T22:46:27.348Z,6.65
2023-03-29T22:48:55.754Z,5.80
2023-03-29T22:51:23.689Z,4.82
2023-03-29T22:53:51.603Z,4.18
2023-03-29T22:56:19.780Z,3.74
2023-03-29T22:58:47.699Z,3.37
2023-03-29T23:01:15.884Z,3.05
2023-03-29T23:03:43.919Z,2.77
2023-03-29T23:06:11.825Z,2.56
2023-03-29T23:08:39.812Z,2.43
2023-03-29T23:11:07.774Z,2.70
2023-03-29T23:13:35.826Z,4.56
2023-03-29T23:16:04.951Z,6.45
2023-03-29T23:18:35.004Z,7.42
2023-03-29T23:21:05.964Z,6.62
2023-03-29T23:23:35.208Z,5.68
2023-03-29T23:26:03.232Z,5.11
2023-03-29T23:28:34.712Z,4.74
2023-03-29T23:31:11.600Z,4.46
2023-03-29T23:33:42.763Z,4.25
2023-03-29T23:36:17.226Z,4.08
2023-03-29T23:38:46.831Z,3.95
2023-03-29T23:41:15.215Z,3.84
2023-03-29T23:43:44.092Z,3.74
2023-03-29T23:46:16.977Z,3.62
2023-03-29T23:48:46.216Z,3.52
2023-03-29T23:51:14.183Z,3.43
2023-03-29T23:53:42.084Z,3.30
2023-03-29T23:56:10.165Z,3.18
2023-03-29T23:58:38.281Z,3.11
